createdAt,value
2023-01-25T00:01:30.875Z,10.70
2023-01-25T00:04:32.592Z,11.30
2023-01-25T00:07:34.368Z,12.60
2023-01-25T00:10:36.047Z,11.77
2023-01-25T00:13:37.746Z,11.33
2023-01-25T00:16:39.937Z,11.30
2023-01-25T00:19:41.696Z,10.30
2023-01-25T00:22:43.404Z,11.10
2023-01-25T00:25:45.142Z,11.13
2023-01-25T00:28:51.108Z,12.50
2023-01-25T00:32:01.641Z,12.07
2023-01-25T00:35:03.772Z,11.77
2023-01-25T00:38:27.417Z,13.10
2023-01-25T00:41:29.094Z,11.60
2023-01-25T00:44:30.864Z,13.13
2023-01-25T00:47:34.394Z,11.77
2023-01-25T00:50:39.460Z,11.33
2023-01-25T00:53:41.509Z,11.70
2023-01-25T00:56:43.585Z,12.10
2023-01-25T00:59:47.390Z,12.77
2023-01-25T01:02:49.820Z,12.00
2023-01-25T01:06:06.820Z,11.97
2023-01-25T01:09:13.913Z,12.53
2023-01-25T01:12:15.636Z,12.27
2023-01-25T01:15:17.487Z,11.10
2023-01-25T01:18:19.222Z,12.00
2023-01-25T01:21:21.443Z,11.73
2023-01-25T01:24:23.386Z,11.93
2023-01-25T01:27:25.218Z,11.67
2023-01-25T01:30:27.491Z,11.67
2023-01-25T01:33:29.384Z,12.17
2023-01-25T01:36:31.412Z,11.13
2023-01-25T01:39:33.245Z,10.83
2023-01-25T01:42:58.736Z,11.40
2023-01-25T01:46:03.543Z,10.47
2023-01-25T01:49:28.755Z,10.53
2023-01-25T01:52:38.033Z,11.87
2023-01-25T01:55:40.526Z,10.97
2023-01-25T01:58:44.276Z,12.17
2023-01-25T02:01:46.566Z,11.87
2023-01-25T02:04:49.926Z,10.47
2023-01-25T02:07:54.822Z,11.80
2023-01-25T02:10:58.523Z,11.70
2023-01-25T02:14:01.752Z,9.83
2023-01-25T02:17:04.103Z,12.77
2023-01-25T02:20:14.696Z,11.57
2023-01-25T02:23:25.336Z,11.83
2023-01-25T02:26:27.296Z,11.70
2023-01-25T02:29:29.920Z,12.17
2023-01-25T02:32:32.897Z,11.90
2023-01-25T02:35:48.506Z,12.70
2023-01-25T02:38:56.729Z,11.57
2023-01-25T02:41:58.444Z,12.23
2023-01-25T02:45:01.388Z,11.80
2023-01-25T02:48:03.160Z,10.93
2023-01-25T02:51:08.570Z,12.07
2023-01-25T02:54:12.465Z,11.90
2023-01-25T02:57:14.220Z,13.50
2023-01-25T03:00:18.335Z,12.40
2023-01-25T03:03:21.494Z,12.77
2023-01-25T03:06:23.257Z,10.77
2023-01-25T03:09:25.864Z,12.83
2023-01-25T03:12:28.246Z,11.17
2023-01-25T03:15:30.131Z,11.53
2023-01-25T03:18:32.817Z,12.67
2023-01-25T03:21:35.082Z,12.17
2023-01-25T03:24:37.109Z,12.67
2023-01-25T03:27:39.087Z,13.30
2023-01-25T03:30:45.042Z,11.83
2023-01-25T03:33:46.898Z,13.37
2023-01-25T03:36:48.742Z,11.93
2023-01-25T03:39:50.523Z,11.57
2023-01-25T03:42:54.381Z,10.87
2023-01-25T03:46:01.564Z,13.83
2023-01-25T03:49:05.979Z,11.83
2023-01-25T03:52:08.731Z,13.53
2023-01-25T03:55:13.464Z,13.03
2023-01-25T03:58:17.265Z,11.97
2023-01-25T04:01:19.201Z,13.63
2023-01-25T04:04:21.080Z,13.63
2023-01-25T04:07:23.883Z,12.77
2023-01-25T04:10:25.695Z,12.97
2023-01-25T04:13:29.276Z,12.50
2023-01-25T04:16:31.430Z,13.67
2023-01-25T04:19:51.265Z,12.57
2023-01-25T04:22:55.744Z,12.63
2023-01-25T04:26:09.329Z,11.43
2023-01-25T04:29:11.095Z,11.77
2023-01-25T04:32:13.336Z,12.27
2023-01-25T04:35:15.331Z,11.57
2023-01-25T04:38:18.559Z,11.67
2023-01-25T04:41:21.238Z,11.67
2023-01-25T04:44:23.997Z,11.80
2023-01-25T04:47:25.924Z,12.73
2023-01-25T04:50:28.122Z,13.77
2023-01-25T04:53:29.889Z,12.30
2023-01-25T04:56:35.473Z,14.83
2023-01-25T04:59:37.354Z,10.90
2023-01-25T05:02:39.744Z,11.60
2023-01-25T05:05:47.666Z,12.03
2023-01-25T05:08:52.918Z,13.33
2023-01-25T05:11:55.435Z,13.53
2023-01-25T05:15:02.073Z,13.67
2023-01-25T05:18:04.765Z,13.10
2023-01-25T05:21:28.534Z,15.57
2023-01-25T05:24:32.000Z,16.10
2023-01-25T05:27:37.162Z,17.53
2023-01-25T05:30:59.235Z,16.90
2023-01-25T05:34:02.245Z,16.90
2023-01-25T05:37:05.508Z,18.23
2023-01-25T05:40:08.776Z,17.83
2023-01-25T05:43:13.594Z,17.23
2023-01-25T05:46:16.250Z,20.33
2023-01-25T05:49:18.793Z,19.63
2023-01-25T05:52:20.804Z,19.60
2023-01-25T05:55:22.707Z,19.40
2023-01-25T05:58:26.748Z,20.53
2023-01-25T06:01:29.115Z,20.17
2023-01-25T06:04:33.328Z,18.17
2023-01-25T06:07:36.635Z,20.77
2023-01-25T06:10:38.373Z,27.03
2023-01-25T06:13:40.432Z,20.30
2023-01-25T06:16:42.303Z,22.23
2023-01-25T06:20:02.733Z,23.27
2023-01-25T06:23:10.398Z,19.93
2023-01-25T06:26:14.238Z,20.60
2023-01-25T06:29:15.977Z,22.27
2023-01-25T06:32:17.885Z,22.23
2023-01-25T06:35:19.608Z,20.77
2023-01-25T06:38:21.371Z,17.53
2023-01-25T06:41:23.257Z,17.37
2023-01-25T06:44:25.011Z,18.73
2023-01-25T06:47:26.785Z,16.43
2023-01-25T06:50:28.887Z,19.17
2023-01-25T06:53:32.705Z,17.37
2023-01-25T06:56:34.425Z,18.13
2023-01-25T06:59:36.254Z,18.77
2023-01-25T07:02:38.180Z,16.83
2023-01-25T07:05:39.962Z,17.83
2023-01-25T07:08:41.743Z,15.60
2023-01-25T07:11:43.521Z,16.87
2023-01-25T07:14:45.349Z,15.90
2023-01-25T07:17:47.041Z,18.43
2023-01-25T07:20:49.201Z,17.30
2023-01-25T07:23:51.861Z,19.67
2023-01-25T07:26:53.573Z,17.83
2023-01-25T07:29:56.051Z,17.60
2023-01-25T07:32:59.461Z,19.13
2023-01-25T07:36:08.893Z,20.30
2023-01-25T07:39:11.692Z,20.00
2023-01-25T07:42:13.560Z,19.80
2023-01-25T07:45:30.045Z,17.90
2023-01-25T07:48:33.112Z,19.37
2023-01-25T07:51:34.924Z,18.90
2023-01-25T07:54:36.642Z,19.50
2023-01-25T07:57:38.349Z,18.40
2023-01-25T08:00:40.373Z,15.77
2023-01-25T08:03:43.735Z,17.63
2023-01-25T08:06:46.201Z,18.87
2023-01-25T08:09:47.931Z,18.80
2023-01-25T08:12:49.619Z,19.37
2023-01-25T08:15:55.709Z,20.20
2023-01-25T08:18:59.723Z,18.77
2023-01-25T08:22:01.414Z,19.17
2023-01-25T08:25:04.246Z,20.70
2023-01-25T08:28:06.108Z,18.47
2023-01-25T08:31:08.873Z,17.53
2023-01-25T08:34:11.180Z,19.73
2023-01-25T08:37:12.906Z,20.20
2023-01-25T08:40:14.894Z,17.97
2023-01-25T08:43:16.667Z,17.60
2023-01-25T08:46:18.902Z,19.43
2023-01-25T08:49:21.105Z,18.50
2023-01-25T08:52:23.065Z,19.80
2023-01-25T08:55:24.870Z,19.50
2023-01-25T08:58:26.865Z,19.90
2023-01-25T09:01:28.598Z,21.03
2023-01-25T09:04:30.441Z,19.27
2023-01-25T09:07:32.404Z,19.33
2023-01-25T09:10:34.565Z,20.13
2023-01-25T09:13:36.509Z,20.10
2023-01-25T09:16:38.203Z,21.90
2023-01-25T09:19:42.036Z,21.60
2023-01-25T09:22:43.819Z,20.23
2023-01-25T09:25:45.473Z,19.33
2023-01-25T09:28:49.951Z,18.07
2023-01-25T09:31:52.441Z,20.67
2023-01-25T09:35:20.465Z,18.07
2023-01-25T09:38:22.719Z,21.07
2023-01-25T09:41:53.542Z,20.90
2023-01-25T09:45:02.449Z,20.33
2023-01-25T09:48:19.435Z,20.27
2023-01-25T09:51:29.264Z,18.10
2023-01-25T09:54:42.384Z,19.80
2023-01-25T09:57:50.933Z,18.13
2023-01-25T10:01:15.682Z,18.37
2023-01-25T10:04:30.520Z,19.03
2023-01-25T10:07:58.917Z,20.70
2023-01-25T10:11:08.197Z,18.67
2023-01-25T10:14:18.112Z,19.70
2023-01-25T10:17:35.372Z,20.40
2023-01-25T10:21:16.562Z,21.57
2023-01-25T10:24:55.960Z,19.57
2023-01-25T10:28:07.937Z,21.00
2023-01-25T10:31:21.911Z,19.83
2023-01-25T10:34:41.364Z,20.57
2023-01-25T10:37:50.732Z,20.80
2023-01-25T10:41:03.979Z,22.07
2023-01-25T10:44:24.804Z,23.57
2023-01-25T10:47:34.223Z,22.30
2023-01-25T10:50:41.083Z,20.67
2023-01-25T10:53:44.212Z,22.80
2023-01-25T10:56:46.808Z,22.37
2023-01-25T10:59:52.599Z,20.87
2023-01-25T11:02:55.342Z,19.90
2023-01-25T11:05:59.244Z,19.90
2023-01-25T11:09:02.657Z,21.60
2023-01-25T11:12:18.461Z,21.23
2023-01-25T11:15:25.557Z,20.63
2023-01-25T11:18:35.137Z,20.87
2023-01-25T11:21:36.988Z,19.90
2023-01-25T11:24:38.701Z,19.97
2023-01-25T11:27:40.441Z,23.20
2023-01-25T11:30:42.459Z,19.97
2023-01-25T11:33:44.309Z,21.70
2023-01-25T11:36:52.046Z,20.60
2023-01-25T11:40:12.377Z,18.90
2023-01-25T11:43:29.103Z,19.50
2023-01-25T11:46:55.103Z,20.00
2023-01-25T11:49:59.616Z,21.33
2023-01-25T11:53:35.440Z,19.83
2023-01-25T11:56:59.427Z,22.50
2023-01-25T12:00:22.312Z,21.20
2023-01-25T12:03:47.111Z,21.17
2023-01-25T12:07:33.501Z,21.07
2023-01-25T12:11:07.653Z,21.33
2023-01-25T12:14:29.484Z,19.93
2023-01-25T12:17:49.144Z,20.53
2023-01-25T12:21:08.116Z,20.07
2023-01-25T12:24:26.739Z,21.37
2023-01-25T12:27:31.462Z,19.57
2023-01-25T12:30:45.990Z,23.40
2023-01-25T12:33:56.035Z,21.00
2023-01-25T12:37:05.028Z,20.90
2023-01-25T12:40:15.409Z,20.03
2023-01-25T12:43:27.859Z,19.73
2023-01-25T12:46:38.650Z,21.53
2023-01-25T12:49:46.275Z,21.47
2023-01-25T12:52:55.865Z,21.73
2023-01-25T12:55:58.681Z,22.20
2023-01-25T12:59:07.952Z,22.00
2023-01-25T13:02:37.599Z,20.27
2023-01-25T13:05:43.444Z,20.37
2023-01-25T13:09:04.601Z,20.90
2023-01-25T13:12:11.392Z,22.23
2023-01-25T13:15:42.389Z,21.83
2023-01-25T13:18:47.080Z,23.60
2023-01-25T13:21:50.520Z,20.20
2023-01-25T13:25:15.632Z,20.60
2023-01-25T13:28:41.977Z,24.27
2023-01-25T13:31:53.503Z,22.40
2023-01-25T13:34:55.347Z,23.53
2023-01-25T13:38:17.279Z,23.93
2023-01-25T13:41:19.273Z,22.67
2023-01-25T13:44:28.270Z,23.53
2023-01-25T13:47:37.826Z,23.83
2023-01-25T13:50:54.841Z,23.97
2023-01-25T13:53:58.767Z,26.60
2023-01-25T13:57:12.877Z,23.80
2023-01-25T14:00:17.113Z,24.30
2023-01-25T14:03:23.190Z,26.20
2023-01-25T14:06:26.334Z,25.97
2023-01-25T14:09:29.865Z,23.77
2023-01-25T14:12:34.854Z,25.53
2023-01-25T14:15:36.566Z,23.83
2023-01-25T14:18:38.662Z,25.37
2023-01-25T14:21:40.369Z,22.20
2023-01-25T14:24:42.086Z,26.47
2023-01-25T14:27:54.797Z,25.80
2023-01-25T14:30:58.887Z,26.30
2023-01-25T14:34:04.011Z,27.20
2023-01-25T14:37:26.047Z,28.00
2023-01-25T14:40:29.778Z,27.47
2023-01-25T14:43:32.083Z,25.50
2023-01-25T14:46:38.501Z,27.53
2023-01-25T14:49:40.218Z,28.50
2023-01-25T14:52:41.952Z,24.00
2023-01-25T14:55:46.154Z,25.97
2023-01-25T14:58:50.961Z,26.00
2023-01-25T15:02:31.927Z,27.63
2023-01-25T15:05:36.423Z,26.10
2023-01-25T15:08:39.094Z,25.80
2023-01-25T15:11:49.269Z,27.43
2023-01-25T15:14:54.190Z,28.70
2023-01-25T15:17:56.462Z,26.63
2023-01-25T15:20:58.356Z,29.27
2023-01-25T15:24:06.838Z,27.67
2023-01-25T15:27:10.315Z,28.70
2023-01-25T15:30:16.808Z,27.57
2023-01-25T15:33:27.339Z,27.07
2023-01-25T15:36:30.506Z,29.27
2023-01-25T15:39:32.636Z,27.80
2023-01-25T15:42:34.380Z,25.93
2023-01-25T15:45:36.223Z,23.87
2023-01-25T15:48:42.107Z,26.80
2023-01-25T15:51:43.892Z,25.13
2023-01-25T15:54:52.243Z,22.80
2023-01-25T15:58:02.193Z,24.63
2023-01-25T16:01:04.390Z,24.33
2023-01-25T16:04:06.142Z,23.67
2023-01-25T16:07:28.797Z,23.83
2023-01-25T16:10:30.619Z,25.03
2023-01-25T16:13:32.323Z,25.63
2023-01-25T16:16:38.669Z,21.03
2023-01-25T16:19:40.430Z,23.77
2023-01-25T16:22:42.119Z,24.73
2023-01-25T16:25:47.546Z,24.57
2023-01-25T16:28:49.407Z,23.83
2023-01-25T16:31:52.597Z,21.40
2023-01-25T16:34:54.499Z,22.43
2023-01-25T16:37:56.879Z,24.77
2023-01-25T16:40:58.563Z,24.70
2023-01-25T16:44:00.346Z,22.33
2023-01-25T16:47:03.667Z,30.63
2023-01-25T16:50:12.577Z,25.43
2023-01-25T16:53:14.446Z,25.60
2023-01-25T16:56:17.428Z,28.97
2023-01-25T16:59:19.863Z,25.93
2023-01-25T17:02:21.696Z,26.27
2023-01-25T17:05:23.440Z,23.63
2023-01-25T17:08:25.416Z,24.00
2023-01-25T17:11:28.182Z,25.63
2023-01-25T17:14:30.399Z,22.53
2023-01-25T17:17:32.226Z,25.47
2023-01-25T17:20:34.026Z,27.73
2023-01-25T17:23:37.605Z,28.27
2023-01-25T17:26:40.655Z,30.80
2023-01-25T17:29:42.656Z,28.57
2023-01-25T17:32:44.657Z,26.53
2023-01-25T17:35:46.465Z,23.87
2023-01-25T17:38:48.276Z,28.27
2023-01-25T17:41:51.225Z,26.30
2023-01-25T17:44:52.952Z,24.90
2023-01-25T17:47:54.659Z,26.20
2023-01-25T17:51:02.723Z,22.23
2023-01-25T17:54:05.338Z,27.70
2023-01-25T17:57:07.034Z,24.43
2023-01-25T18:00:11.955Z,21.10
2023-01-25T18:03:17.373Z,24.43
2023-01-25T18:06:25.310Z,24.90
2023-01-25T18:09:27.378Z,23.73
2023-01-25T18:12:29.084Z,24.73
2023-01-25T18:15:31.129Z,25.53
2023-01-25T18:18:32.854Z,23.07
2023-01-25T18:21:35.699Z,26.80
2023-01-25T18:24:37.636Z,25.10
2023-01-25T18:27:39.687Z,23.97
2023-01-25T18:30:51.961Z,26.80
2023-01-25T18:33:53.833Z,25.57
2023-01-25T18:36:59.136Z,25.80
2023-01-25T18:40:00.999Z,26.10
2023-01-25T18:43:02.754Z,25.90
2023-01-25T18:46:05.287Z,24.17
2023-01-25T18:49:07.000Z,27.70
2023-01-25T18:52:11.895Z,25.40
2023-01-25T18:55:13.796Z,24.20
2023-01-25T18:58:15.521Z,25.03
2023-01-25T19:01:19.609Z,26.77
2023-01-25T19:04:21.393Z,25.83
2023-01-25T19:07:23.160Z,25.70
2023-01-25T19:10:24.891Z,26.57
2023-01-25T19:13:27.135Z,25.20
2023-01-25T19:16:28.932Z,27.50
2023-01-25T19:19:33.565Z,26.50
2023-01-25T19:22:35.378Z,28.53
2023-01-25T19:25:37.104Z,24.80
2023-01-25T19:28:39.214Z,25.13
2023-01-25T19:31:41.071Z,24.90
2023-01-25T19:34:42.875Z,24.23
2023-01-25T19:37:44.643Z,23.60
2023-01-25T19:40:46.329Z,23.17
2023-01-25T19:43:52.374Z,24.27
2023-01-25T19:46:54.173Z,24.37
2023-01-25T19:49:56.965Z,25.70
2023-01-25T19:52:58.753Z,24.10
2023-01-25T19:56:08.353Z,22.87
2023-01-25T19:59:21.530Z,24.83
2023-01-25T20:02:23.283Z,23.83
2023-01-25T20:05:24.970Z,23.70
2023-01-25T20:08:31.660Z,24.10
2023-01-25T20:11:34.324Z,24.90
2023-01-25T20:14:37.413Z,25.63
2023-01-25T20:17:39.217Z,23.37
2023-01-25T20:20:40.920Z,24.10
2023-01-25T20:23:44.798Z,22.10
2023-01-25T20:26:46.579Z,25.57
2023-01-25T20:29:49.105Z,24.97
2023-01-25T20:32:50.899Z,23.57
2023-01-25T20:35:54.934Z,22.27
2023-01-25T20:38:57.020Z,27.80
2023-01-25T20:41:58.996Z,27.67
2023-01-25T20:45:00.749Z,28.37
2023-01-25T20:48:02.489Z,25.07
2023-01-25T20:51:05.913Z,23.20
2023-01-25T20:54:07.640Z,23.67
2023-01-25T20:57:09.445Z,23.43
2023-01-25T21:00:11.551Z,24.23
2023-01-25T21:03:13.242Z,24.43
2023-01-25T21:06:16.281Z,22.83
2023-01-25T21:09:18.025Z,25.40
2023-01-25T21:12:19.840Z,23.67
2023-01-25T21:15:22.456Z,22.53
2023-01-25T21:18:31.370Z,24.37
2023-01-25T21:21:34.654Z,23.37
2023-01-25T21:24:37.171Z,24.93
2023-01-25T21:27:38.895Z,20.73
2023-01-25T21:30:40.592Z,22.00
2023-01-25T21:33:42.831Z,21.93
2023-01-25T21:36:44.576Z,24.33
2023-01-25T21:39:46.305Z,25.00
2023-01-25T21:42:48.616Z,24.37
2023-01-25T21:46:08.672Z,21.77
2023-01-25T21:49:30.504Z,23.03
2023-01-25T21:52:36.235Z,25.57
2023-01-25T21:55:38.186Z,22.03
2023-01-25T21:58:39.893Z,23.70
2023-01-25T22:01:43.000Z,22.73
2023-01-25T22:04:44.795Z,23.23
2023-01-25T22:07:46.552Z,28.00
2023-01-25T22:10:48.264Z,23.33
2023-01-25T22:13:49.977Z,22.77
2023-01-25T22:16:52.583Z,20.90
2023-01-25T22:19:54.636Z,23.30
2023-01-25T22:22:56.490Z,21.77
2023-01-25T22:26:03.560Z,24.00
2023-01-25T22:29:05.285Z,25.13
2023-01-25T22:32:07.017Z,23.40
2023-01-25T22:35:09.053Z,20.23
2023-01-25T22:38:10.768Z,24.47
2023-01-25T22:41:18.048Z,25.13
2023-01-25T22:44:19.882Z,24.87
2023-01-25T22:47:21.604Z,22.80
2023-01-25T22:50:23.318Z,24.53
2023-01-25T22:53:25.045Z,25.03
2023-01-25T22:56:32.302Z,24.87
2023-01-25T22:59:34.031Z,22.97
2023-01-25T23:02:37.957Z,23.67
2023-01-25T23:05:39.792Z,26.10
2023-01-25T23:08:42.170Z,24.83
2023-01-25T23:11:43.885Z,23.60
2023-01-25T23:14:51.522Z,26.37
2023-01-25T23:18:12.017Z,26.83
2023-01-25T23:21:14.128Z,26.00
2023-01-25T23:24:15.917Z,24.47
2023-01-25T23:27:17.652Z,22.37
2023-01-25T23:30:19.482Z,24.07
2023-01-25T23:33:21.183Z,22.20
2023-01-25T23:36:25.466Z,23.67
2023-01-25T23:39:27.237Z,23.23
2023-01-25T23:42:28.985Z,25.13
2023-01-25T23:45:30.752Z,26.47
2023-01-25T23:48:32.671Z,26.90
2023-01-25T23:51:34.396Z,25.40
2023-01-25T23:54:36.222Z,23.77
2023-01-25T23:57:37.910Z,22.43
